Time;durP1;ratioP1;P1;durP2;ratioP2;P2;SDS_P1;SDS_P2;PMS_P1;PMS_P2;Temp;Humidity;BMP_temperature;BMP_pressure;BME280_temperature;BME280_humidity;BME280_pressure;Samples;Min_cycle;Max_cycle;Signal;HPM_P1;HPM_P2
2022/11/22 00:00:55;;;;;;;;;;;8.50;74.70;;;;;;5043421;28;87979;-41
2022/11/22 00:03:20;;;;;;;;;;;8.50;74.70;;;;;;5043341;28;87138;-41
2022/11/22 00:05:46;;;;;;;;;;;8.50;74.70;;;;;;5045615;28;87804;-41
2022/11/22 00:08:11;;;;;;;;;;;8.50;74.70;;;;;;5043785;28;86950;-40
2022/11/22 00:10:37;;;;;;;;;;;8.50;74.80;;;;;;5043642;27;87287;-40
2022/11/22 00:13:03;;;;;;;;;;;8.50;74.70;;;;;;5043279;28;87996;-40
2022/11/22 00:15:28;;;;;;;;;;;8.50;74.80;;;;;;5043269;28;87138;-40
2022/11/22 00:17:54;;;;;;;;;;;8.50;74.70;;;;;;5043872;27;87199;-40
2022/11/22 00:20:19;;;;;;;;;;;8.50;74.70;;;;;;5043001;28;88193;-40
2022/11/22 00:22:45;;;;;;;;;;;8.40;74.80;;;;;;5043974;28;86359;-40
2022/11/22 00:25:11;;;;;;;;;;;8.40;74.80;;;;;;5046123;28;86915;-40
2022/11/22 00:27:36;;;;;;;;;;;8.40;74.90;;;;;;5043264;28;87137;-40
2022/11/22 00:30:02;;;;;;;;;;;8.40;74.80;;;;;;5042702;28;87916;-40
2022/11/22 00:32:27;;;;;;;;;;;8.40;74.90;;;;;;5042712;28;88864;-41
2022/11/22 00:34:53;;;;;;;;;;;8.40;74.90;;;;;;5043475;28;87019;-41
2022/11/22 00:37:18;;;;;;;;;;;8.40;74.90;;;;;;5042980;28;87546;-40
2022/11/22 00:39:44;;;;;;;;;;;8.40;74.80;;;;;;5042745;28;88060;-40
2022/11/22 00:42:09;;;;;;;;;;;8.30;74.90;;;;;;5042912;28;87159;-40
2022/11/22 00:44:35;;;;;;;;;;;8.30;75.00;;;;;;5042688;27;87341;-40
2022/11/22 00:47:00;;;;;;;;;;;8.40;75.00;;;;;;5046063;28;87454;-40
2022/11/22 00:49:26;;;;;;;;;;;8.30;75.00;;;;;;5043170;28;87022;-41
2022/11/22 00:51:51;;;;;;;;;;;8.40;74.70;;;;;;5042716;28;88178;-41
2022/11/22 00:54:17;;;;;;;;;;;8.40;74.80;;;;;;5042118;28;88006;-41
2022/11/22 00:56:42;;;;;;;;;;;8.40;74.70;;;;;;5042946;28;88205;-41
2022/11/22 00:59:08;;;;;;;;;;;8.30;74.80;;;;;;5042331;28;88638;-40
2022/11/22 01:01:33;;;;;;;;;;;8.30;74.80;;;;;;5043060;28;87115;-40
2022/11/22 01:03:59;;;;;;;;;;;8.30;74.80;;;;;;5042983;28;87474;-40
2022/11/22 01:06:24;;;;;;;;;;;8.30;74.80;;;;;;5042569;28;88182;-40
2022/11/22 01:08:50;;;;;;;;;;;8.30;74.90;;;;;;5045831;28;87123;-40
2022/11/22 01:11:16;;;;;;;;;;;8.30;74.70;;;;;;5043025;28;87424;-40
2022/11/22 01:13:42;;;;;;;;;;;8.20;74.80;;;;;;5042571;28;87088;-40
2022/11/22 01:16:08;;;;;;;;;;;8.20;74.80;;;;;;5042607;28;87474;-40
2022/11/22 01:18:33;;;;;;;;;;;8.20;74.90;;;;;;5041520;28;89063;-40
2022/11/22 01:20:59;;;;;;;;;;;8.20;74.90;;;;;;5042588;28;87100;-41
2022/11/22 01:23:25;;;;;;;;;;;8.20;74.70;;;;;;5045253;27;87566;-41
2022/11/22 01:25:50;;;;;;;;;;;8.20;74.80;;;;;;5045847;28;88082;-40
2022/11/22 01:28:16;;;;;;;;;;;8.20;74.90;;;;;;5046291;28;86947;-41
2022/11/22 01:30:42;;;;;;;;;;;8.20;74.90;;;;;;5048821;28;87435;-40
2022/11/22 01:33:08;;;;;;;;;;;8.20;74.80;;;;;;5045970;28;87062;-40
2022/11/22 01:35:33;;;;;;;;;;;8.20;74.90;;;;;;5046586;28;87594;-40
2022/11/22 01:37:59;;;;;;;;;;;8.20;74.70;;;;;;5045555;28;87948;-40
2022/11/22 01:40:24;;;;;;;;;;;8.20;74.90;;;;;;5045913;28;87143;-40
2022/11/22 01:42:57;;;;;;;;;;;8.10;74.70;;;;;;5045189;28;87974;-40
2022/11/22 01:45:28;;;;;;;;;;;8.10;75.30;;;;;;5044815;28;88119;-40
2022/11/22 01:47:55;;;;;;;;;;;8.10;74.90;;;;;;5046050;28;87139;-40
2022/11/22 01:50:21;;;;;;;;;;;8.10;74.80;;;;;;5045721;27;87398;-41
2022/11/22 01:52:46;;;;;;;;;;;8.10;74.80;;;;;;5048625;28;88065;-40
2022/11/22 01:55:12;;;;;;;;;;;8.10;74.70;;;;;;5045560;27;88587;-40
2022/11/22 01:57:40;;;;;;;;;;;8.10;74.80;;;;;;5043903;28;91924;-40
2022/11/22 02:00:08;;;;;;;;;;;8.10;74.80;;;;;;5046102;28;86303;-40
2022/11/22 02:02:33;;;;;;;;;;;8.10;74.70;;;;;;5045552;27;86994;-41
2022/11/22 02:05:01;;;;;;;;;;;8.10;74.70;;;;;;5045433;28;87869;-41
2022/11/22 02:07:31;;;;;;;;;;;8.10;74.80;;;;;;5044747;28;88060;-41
2022/11/22 02:09:56;;;;;;;;;;;8.10;74.80;;;;;;5045135;27;88336;-41
2022/11/22 02:12:26;;;;;;;;;;;8.00;74.80;;;;;;5045361;28;88071;-40
2022/11/22 02:14:52;;;;;;;;;;;8.00;75.00;;;;;;5048180;28;86979;-40
2022/11/22 02:17:18;;;;;;;;;;;8.00;74.80;;;;;;5045475;28;88156;-40
2022/11/22 02:19:45;;;;;;;;;;;8.00;74.80;;;;;;5045476;28;87093;-40
2022/11/22 02:22:29;;;;;;;;;;;8.00;74.90;;;;;;5045360;28;87189;-40
2022/11/22 02:24:58;;;;;;;;;;;8.00;74.60;;;;;;5045405;27;87714;-40
2022/11/22 02:27:24;;;;;;;;;;;8.00;74.70;;;;;;5045185;28;87087;-40
2022/11/22 02:29:49;;;;;;;;;;;7.90;74.70;;;;;;5045471;28;87222;-40
2022/11/22 02:32:15;;;;;;;;;;;8.00;74.60;;;;;;5044113;28;89061;-40
2022/11/22 02:34:41;;;;;;;;;;;7.90;74.70;;;;;;5046852;27;87102;-40
2022/11/22 02:37:07;;;;;;;;;;;7.90;74.90;;;;;;5044550;28;88056;-40
2022/11/22 02:39:32;;;;;;;;;;;7.90;74.60;;;;;;5044990;28;87140;-40
2022/11/22 02:41:58;;;;;;;;;;;7.90;74.60;;;;;;5045163;28;87234;-40
2022/11/22 02:44:23;;;;;;;;;;;8.00;74.50;;;;;;5044619;28;87738;-40
2022/11/22 02:46:51;;;;;;;;;;;7.90;74.40;;;;;;5044961;28;86973;-40
2022/11/22 02:49:17;;;;;;;;;;;7.90;74.50;;;;;;5045496;27;87370;-41
2022/11/22 02:51:43;;;;;;;;;;;7.90;74.40;;;;;;5044310;28;88210;-40
2022/11/22 02:54:08;;;;;;;;;;;7.90;74.50;;;;;;5044667;28;87154;-40
2022/11/22 02:56:34;;;;;;;;;;;7.90;75.10;;;;;;5046789;28;88093;-40
2022/11/22 02:58:59;;;;;;;;;;;7.90;74.40;;;;;;5044543;28;87091;-40
2022/11/22 03:01:25;;;;;;;;;;;7.90;74.60;;;;;;5044764;28;87342;-40
2022/11/22 03:03:50;;;;;;;;;;;7.80;74.50;;;;;;5044445;28;88045;-40
2022/11/22 03:06:15;;;;;;;;;;;7.80;74.70;;;;;;5044651;28;87841;-40
2022/11/22 03:08:41;;;;;;;;;;;7.80;74.40;;;;;;5044367;28;87240;-40
2022/11/22 03:11:07;;;;;;;;;;;7.80;74.40;;;;;;5043855;28;89454;-40
2022/11/22 03:13:32;;;;;;;;;;;7.80;74.40;;;;;;5045051;28;86408;-40
2022/11/22 03:15:57;;;;;;;;;;;7.80;74.40;;;;;;5044553;28;87036;-40
2022/11/22 03:18:23;;;;;;;;;;;7.80;74.40;;;;;;5047212;28;87439;-40
2022/11/22 03:20:49;;;;;;;;;;;7.80;74.40;;;;;;5043815;28;87967;-40
2022/11/22 03:23:14;;;;;;;;;;;7.80;74.40;;;;;;5043787;28;88307;-40
2022/11/22 03:25:39;;;;;;;;;;;7.80;74.40;;;;;;5044431;28;87148;-40
2022/11/22 03:28:05;;;;;;;;;;;7.70;74.40;;;;;;5044274;28;87104;-40
2022/11/22 03:30:31;;;;;;;;;;;7.70;74.60;;;;;;5043961;28;87680;-40
2022/11/22 03:32:56;;;;;;;;;;;7.70;74.50;;;;;;5044434;28;87148;-40
2022/11/22 03:35:21;;;;;;;;;;;7.70;74.60;;;;;;5044189;28;87305;-40
2022/11/22 03:37:47;;;;;;;;;;;7.70;74.30;;;;;;5043934;28;87308;-41
2022/11/22 03:40:12;;;;;;;;;;;7.70;74.40;;;;;;5046917;28;87107;-40
2022/11/22 03:42:38;;;;;;;;;;;7.70;74.40;;;;;;5043931;28;88125;-40
2022/11/22 03:45:04;;;;;;;;;;;7.60;74.30;;;;;;5042703;28;88130;-40
2022/11/22 03:47:30;;;;;;;;;;;7.70;74.20;;;;;;5043717;28;88493;-40
2022/11/22 03:49:55;;;;;;;;;;;7.70;74.20;;;;;;5043680;28;87222;-40
2022/11/22 03:52:21;;;;;;;;;;;7.70;74.40;;;;;;5043917;28;87191;-41
2022/11/22 03:54:46;;;;;;;;;;;7.70;74.40;;;;;;5043876;28;87239;-40
2022/11/22 03:57:12;;;;;;;;;;;7.60;74.40;;;;;;5043415;28;88043;-41
2022/11/22 03:59:37;;;;;;;;;;;7.60;74.20;;;;;;5043482;28;87141;-41
2022/11/22 04:02:03;;;;;;;;;;;7.60;74.30;;;;;;5046845;28;86989;-41
2022/11/22 04:04:28;;;;;;;;;;;7.60;74.30;;;;;;5043894;28;87205;-40
2022/11/22 04:06:54;;;;;;;;;;;7.60;74.00;;;;;;5043650;28;86994;-40
2022/11/22 04:09:19;;;;;;;;;;;7.60;74.10;;;;;;5042505;28;88978;-40
2022/11/22 04:11:45;;;;;;;;;;;7.60;74.10;;;;;;5043739;28;87197;-40
2022/11/22 04:16:55;;;;;;;;;;;7.50;74.30;;;;;;5041995;28;87421;-40
2022/11/22 04:19:21;;;;;;;;;;;7.50;74.40;;;;;;5043580;28;87135;-40
2022/11/22 04:21:46;;;;;;;;;;;7.50;74.40;;;;;;5045969;27;87451;-40
2022/11/22 04:26:56;;;;;;;;;;;7.50;74.40;;;;;;5044119;28;86670;-40
2022/11/22 04:29:22;;;;;;;;;;;7.40;74.30;;;;;;5042984;28;88006;-40
2022/11/22 04:34:33;;;;;;;;;;;7.40;74.30;;;;;;5039947;28;87989;-41
2022/11/22 04:36:58;;;;;;;;;;;7.40;74.30;;;;;;5042480;28;89580;-40
2022/11/22 04:39:24;;;;;;;;;;;7.40;74.40;;;;;;5043029;28;87141;-40
2022/11/22 04:44:39;;;;;;;;;;;7.40;74.50;;;;;;5043140;27;87357;-40
2022/11/22 04:44:41;;;;;;;;;;;7.40;74.40;;;;;;5045162;28;88758;-40
2022/11/22 04:47:08;;;;;;;;;;;7.40;74.40;;;;;;5042786;27;87895;-40
2022/11/22 04:49:34;;;;;;;;;;;7.30;74.40;;;;;;5042718;28;88075;-40
2022/11/22 04:55:02;;;;;;;;;;;7.30;74.40;;;;;;5043176;28;87153;-40
2022/11/22 04:57:27;;;;;;;;;;;7.30;74.40;;;;;;5041375;27;89092;-40
2022/11/22 04:59:53;;;;;;;;;;;7.30;74.30;;;;;;5042237;28;88048;-40
2022/11/22 05:02:18;;;;;;;;;;;7.30;74.30;;;;;;5042788;28;88410;-40
2022/11/22 05:04:44;;;;;;;;;;;7.30;74.30;;;;;;5042419;28;87205;-40
2022/11/22 05:07:10;;;;;;;;;;;7.30;74.30;;;;;;5045816;28;87658;-40
2022/11/22 05:09:35;;;;;;;;;;;7.30;74.30;;;;;;5042349;28;87732;-40
2022/11/22 05:12:01;;;;;;;;;;;7.30;74.40;;;;;;5042250;28;87082;-40
2022/11/22 05:14:26;;;;;;;;;;;7.20;74.40;;;;;;5042854;27;87395;-40
2022/11/22 05:16:52;;;;;;;;;;;7.20;74.40;;;;;;5042842;28;87265;-40
2022/11/22 05:19:17;;;;;;;;;;;7.20;74.40;;;;;;5042574;28;87236;-40
2022/11/22 05:21:43;;;;;;;;;;;7.20;74.30;;;;;;5042516;28;87248;-40
2022/11/22 05:24:08;;;;;;;;;;;7.20;74.20;;;;;;5041636;28;89317;-40
2022/11/22 05:26:34;;;;;;;;;;;7.20;74.40;;;;;;5042571;28;87152;-40
2022/11/22 05:29:06;;;;;;;;;;;7.20;74.20;;;;;;5045263;27;87200;-40
2022/11/22 05:31:32;;;;;;;;;;;7.20;74.30;;;;;;5042512;28;87125;-40
2022/11/22 05:33:58;;;;;;;;;;;7.20;74.30;;;;;;5042549;27;87366;-40
2022/11/22 05:36:24;;;;;;;;;;;7.20;74.30;;;;;;5041676;28;89326;-40
2022/11/22 05:38:50;;;;;;;;;;;7.10;74.20;;;;;;5041754;28;87037;-40
2022/11/22 05:41:15;;;;;;;;;;;7.20;74.20;;;;;;5042667;28;87476;-40
2022/11/22 05:43:41;;;;;;;;;;;7.10;74.20;;;;;;5041937;28;88006;-40
2022/11/22 05:46:07;;;;;;;;;;;7.20;74.30;;;;;;5042109;28;87270;-40
2022/11/22 05:48:33;;;;;;;;;;;7.10;74.20;;;;;;5041739;27;87981;-40
2022/11/22 05:51:02;;;;;;;;;;;7.10;74.20;;;;;;5044754;28;88814;-40
2022/11/22 05:53:27;;;;;;;;;;;7.10;74.20;;;;;;5042125;27;86994;-41
2022/11/22 05:55:53;;;;;;;;;;;7.10;74.20;;;;;;5041577;28;88205;-41
2022/11/22 05:58:18;;;;;;;;;;;7.10;74.10;;;;;;5042238;28;87738;-40
2022/11/22 06:00:44;;;;;;;;;;;7.10;74.10;;;;;;5042096;28;87307;-40
2022/11/22 06:03:09;;;;;;;;;;;7.10;74.00;;;;;;5041459;28;89719;-40
2022/11/22 06:05:35;;;;;;;;;;;7.10;74.10;;;;;;5042882;28;86210;-40
2022/11/22 06:08:01;;;;;;;;;;;7.10;74.00;;;;;;5042712;27;87092;-40
2022/11/22 06:10:27;;;;;;;;;;;7.10;74.00;;;;;;5044916;28;89311;-40
2022/11/22 06:12:53;;;;;;;;;;;7.00;74.00;;;;;;5047927;28;88019;-40
2022/11/22 06:15:19;;;;;;;;;;;7.00;74.00;;;;;;5045107;28;87614;-40
2022/11/22 06:17:44;;;;;;;;;;;7.00;74.00;;;;;;5045359;28;87099;-41
2022/11/22 06:20:10;;;;;;;;;;;7.00;74.10;;;;;;5045522;28;87437;-40
2022/11/22 06:22:35;;;;;;;;;;;7.00;74.00;;;;;;5045215;28;87931;-40
2022/11/22 06:25:01;;;;;;;;;;;7.00;73.90;;;;;;5045398;28;87120;-40
2022/11/22 06:27:26;;;;;;;;;;;7.00;74.00;;;;;;5045001;28;87525;-40
2022/11/22 06:29:52;;;;;;;;;;;7.00;74.00;;;;;;5045575;28;87529;-40
2022/11/22 06:32:17;;;;;;;;;;;7.00;74.00;;;;;;5048104;28;86976;-40
2022/11/22 06:34:43;;;;;;;;;;;7.00;74.00;;;;;;5045007;28;88352;-40
2022/11/22 06:37:09;;;;;;;;;;;7.00;74.00;;;;;;5044307;28;87824;-40
2022/11/22 06:39:34;;;;;;;;;;;7.00;74.00;;;;;;5045372;28;88519;-40
2022/11/22 06:42:00;;;;;;;;;;;7.00;73.90;;;;;;5044558;28;88058;-40
2022/11/22 06:44:25;;;;;;;;;;;7.00;73.90;;;;;;5044748;28;87231;-40
2022/11/22 06:46:51;;;;;;;;;;;7.00;73.90;;;;;;5043522;28;88587;-40
2022/11/22 06:49:16;;;;;;;;;;;7.00;73.80;;;;;;5044552;28;88063;-41
2022/11/22 06:51:41;;;;;;;;;;;7.00;73.80;;;;;;5044585;28;87170;-40
2022/11/22 06:54:10;;;;;;;;;;;7.00;73.80;;;;;;5048003;28;87482;-40
2022/11/22 06:56:38;;;;;;;;;;;6.90;73.80;;;;;;5044435;28;87156;-40
2022/11/22 06:59:04;;;;;;;;;;;6.90;73.90;;;;;;5044542;27;89769;-40
2022/11/22 07:01:30;;;;;;;;;;;6.90;73.90;;;;;;5043788;28;89137;-40
2022/11/22 07:03:59;;;;;;;;;;;6.90;73.90;;;;;;5044826;28;87517;-40
2022/11/22 07:06:25;;;;;;;;;;;6.90;73.90;;;;;;5044338;27;88329;-40
2022/11/22 07:08:51;;;;;;;;;;;6.90;73.80;;;;;;5044244;28;88090;-40
2022/11/22 07:11:21;;;;;;;;;;;6.90;73.80;;;;;;5044391;28;87246;-40
2022/11/22 07:13:47;;;;;;;;;;;6.90;73.90;;;;;;5044636;27;87366;-40
2022/11/22 07:16:14;;;;;;;;;;;6.90;73.90;;;;;;5046934;28;89111;-40
2022/11/22 07:18:40;;;;;;;;;;;6.90;73.90;;;;;;5044981;27;87944;-40
2022/11/22 07:21:10;;;;;;;;;;;6.90;73.90;;;;;;5043270;28;87985;-41
2022/11/22 07:23:36;;;;;;;;;;;6.90;73.90;;;;;;5044196;28;87017;-40
2022/11/22 07:26:02;;;;;;;;;;;6.90;73.90;;;;;;5044174;27;87998;-41
2022/11/22 07:28:27;;;;;;;;;;;6.90;73.90;;;;;;5044032;28;87211;-40
2022/11/22 07:30:57;;;;;;;;;;;6.90;73.90;;;;;;5044365;28;87403;-40
2022/11/22 07:33:22;;;;;;;;;;;6.90;74.00;;;;;;5044172;27;87645;-40
2022/11/22 07:35:48;;;;;;;;;;;6.90;73.80;;;;;;5043798;28;88035;-40
2022/11/22 07:38:13;;;;;;;;;;;6.80;73.90;;;;;;5045209;28;87073;-40
2022/11/22 07:40:39;;;;;;;;;;;6.80;73.90;;;;;;5043738;28;88228;-40
2022/11/22 07:43:04;;;;;;;;;;;6.80;74.00;;;;;;5044548;28;86417;-40
2022/11/22 07:45:30;;;;;;;;;;;6.80;74.10;;;;;;5043444;27;87896;-40
2022/11/22 07:47:57;;;;;;;;;;;6.80;74.10;;;;;;5043735;28;88076;-40
2022/11/22 07:50:23;;;;;;;;;;;6.80;74.10;;;;;;5043306;28;88055;-40
2022/11/22 07:52:53;;;;;;;;;;;6.80;74.10;;;;;;5044018;28;88469;-40
2022/11/22 07:55:19;;;;;;;;;;;6.80;74.00;;;;;;5043483;28;88066;-40
2022/11/22 07:57:44;;;;;;;;;;;6.80;74.10;;;;;;5044034;28;87138;-40
2022/11/22 08:00:10;;;;;;;;;;;6.80;74.10;;;;;;5046590;28;87711;-40
2022/11/22 08:02:36;;;;;;;;;;;6.80;74.10;;;;;;5043592;28;87059;-40
2022/11/22 08:05:02;;;;;;;;;;;6.80;74.10;;;;;;5043713;27;87304;-41
2022/11/22 08:07:27;;;;;;;;;;;6.80;74.10;;;;;;5043429;28;88671;-40
2022/11/22 08:09:53;;;;;;;;;;;6.80;74.30;;;;;;5043795;28;87478;-40
2022/11/22 08:12:18;;;;;;;;;;;6.80;74.30;;;;;;5043774;28;87103;-40
2022/11/22 08:14:44;;;;;;;;;;;6.70;74.30;;;;;;5042642;28;88815;-40
2022/11/22 08:17:09;;;;;;;;;;;6.70;74.40;;;;;;5043739;28;87165;-40
2022/11/22 08:19:35;;;;;;;;;;;6.80;74.50;;;;;;5043456;28;87354;-40
2022/11/22 08:22:00;;;;;;;;;;;6.80;74.30;;;;;;5045997;28;87962;-40
2022/11/22 08:24:26;;;;;;;;;;;6.80;74.20;;;;;;5043463;28;87139;-40
2022/11/22 08:26:51;;;;;;;;;;;6.80;74.30;;;;;;5043121;28;87943;-40
2022/11/22 08:29:17;;;;;;;;;;;6.80;74.20;;;;;;5043387;28;87137;-40
2022/11/22 08:31:43;;;;;;;;;;;6.80;74.40;;;;;;5043940;28;87275;-40
2022/11/22 08:34:08;;;;;;;;;;;6.70;74.50;;;;;;5043011;28;88154;-40
2022/11/22 08:36:34;;;;;;;;;;;6.70;74.70;;;;;;5043200;28;87134;-40
2022/11/22 08:38:59;;;;;;;;;;;6.70;74.70;;;;;;5042197;28;88031;-40
2022/11/22 08:41:25;;;;;;;;;;;6.70;74.70;;;;;;5045616;28;88018;-40
2022/11/22 08:43:51;;;;;;;;;;;6.70;74.70;;;;;;5043253;28;87409;-40
2022/11/22 08:46:17;;;;;;;;;;;6.70;74.70;;;;;;5042682;28;87814;-40
2022/11/22 08:48:43;;;;;;;;;;;6.70;74.90;;;;;;5043264;28;87141;-40
2022/11/22 08:51:10;;;;;;;;;;;6.70;74.80;;;;;;5042783;28;88746;-40
2022/11/22 08:53:36;;;;;;;;;;;6.70;74.70;;;;;;5042502;28;87797;-40
2022/11/22 08:56:02;;;;;;;;;;;6.70;74.80;;;;;;5043167;28;86364;-40
2022/11/22 08:58:29;;;;;;;;;;;6.70;75.00;;;;;;5043074;27;87435;-40
2022/11/22 09:00:55;;;;;;;;;;;6.70;74.90;;;;;;5042145;28;89501;-41
2022/11/22 09:03:21;;;;;;;;;;;6.70;74.70;;;;;;5045034;28;88036;-40
2022/11/22 09:05:46;;;;;;;;;;;6.70;75.00;;;;;;5042649;28;88039;-40
2022/11/22 09:08:12;;;;;;;;;;;6.70;74.70;;;;;;5042489;28;86961;-40
2022/11/22 09:10:37;;;;;;;;;;;6.70;74.80;;;;;;5042866;28;87420;-40
2022/11/22 09:13:03;;;;;;;;;;;6.70;74.90;;;;;;5042416;28;88788;-40
2022/11/22 09:15:28;;;;;;;;;;;6.60;74.90;;;;;;5042775;28;86955;-40
2022/11/22 09:18:00;;;;;;;;;;;6.70;75.00;;;;;;5042675;28;87217;-40
2022/11/22 09:20:26;;;;;;;;;;;6.70;75.00;;;;;;5042454;28;88592;-41
2022/11/22 09:22:52;;;;;;;;;;;6.60;75.10;;;;;;5042426;28;87263;-40
2022/11/22 09:25:17;;;;;;;;;;;6.70;75.10;;;;;;5045095;28;87000;-40
2022/11/22 09:27:43;;;;;;;;;;;6.70;75.10;;;;;;5042023;28;88010;-41
2022/11/22 09:30:08;;;;;;;;;;;6.70;75.10;;;;;;5042483;28;88390;-40
2022/11/22 09:32:34;;;;;;;;;;;6.70;75.20;;;;;;5042134;28;88044;-40
2022/11/22 09:34:59;;;;;;;;;;;6.60;75.10;;;;;;5042476;28;87105;-40
2022/11/22 09:37:25;;;;;;;;;;;6.60;75.10;;;;;;5042394;28;86944;-40
2022/11/22 09:39:50;;;;;;;;;;;6.60;75.20;;;;;;5041898;28;88111;-40
2022/11/22 09:42:19;;;;;;;;;;;6.60;75.10;;;;;;5042334;27;87139;-40
2022/11/22 09:44:50;;;;;;;;;;;6.60;75.30;;;;;;5045576;27;86985;-40
2022/11/22 09:47:26;;;;;;;;;;;6.60;75.20;;;;;;5048523;28;87973;-40
2022/11/22 09:50:04;;;;;;;;;;;6.60;75.20;;;;;;5046036;27;87049;-40
2022/11/22 09:52:39;;;;;;;;;;;6.60;75.20;;;;;;5044992;28;88943;-40
2022/11/22 09:55:04;;;;;;;;;;;6.60;75.20;;;;;;5045706;28;87133;-40
2022/11/22 09:57:32;;;;;;;;;;;6.60;75.30;;;;;;5045714;28;87372;-40
2022/11/22 10:00:01;;;;;;;;;;;6.60;75.20;;;;;;5045233;28;87922;-40
2022/11/22 10:02:37;;;;;;;;;;;6.60;75.20;;;;;;5045315;28;87120;-40
2022/11/22 10:05:04;;;;;;;;;;;6.60;75.20;;;;;;5046065;27;87360;-40
2022/11/22 10:07:33;;;;;;;;;;;6.60;75.40;;;;;;5045069;28;88205;-40
2022/11/22 10:09:58;;;;;;;;;;;6.60;75.30;;;;;;5048845;28;86353;-40
2022/11/22 10:12:24;;;;;;;;;;;6.60;75.30;;;;;;5045179;28;88229;-40
2022/11/22 10:14:53;;;;;;;;;;;6.60;75.40;;;;;;5045572;28;87091;-40
2022/11/22 10:17:18;;;;;;;;;;;6.70;75.50;;;;;;5044711;27;87797;-40
2022/11/22 10:19:51;;;;;;;;;;;6.70;75.20;;;;;;5044964;28;88169;-40
2022/11/22 10:22:16;;;;;;;;;;;6.70;75.30;;;;;;5045344;28;86968;-40
2022/11/22 10:24:42;;;;;;;;;;;6.70;75.10;;;;;;5045409;28;87420;-40
2022/11/22 10:27:12;;;;;;;;;;;6.80;75.00;;;;;;5044860;28;87830;-40
2022/11/22 10:29:44;;;;;;;;;;;6.70;75.10;;;;;;5045091;28;87157;-40
2022/11/22 10:32:22;;;;;;;;;;;6.80;75.60;;;;;;5047584;27;88469;-40
2022/11/22 10:34:56;;;;;;;;;;;6.80;75.20;;;;;;5045517;28;86416;-40
2022/11/22 10:37:27;;;;;;;;;;;6.80;75.60;;;;;;5045526;28;86974;-40
2022/11/22 10:40:11;;;;;;;;;;;6.80;75.30;;;;;;5044781;28;88074;-40
2022/11/22 10:42:57;;;;;;;;;;;6.80;75.30;;;;;;5044527;27;88209;-40
2022/11/22 10:45:32;;;;;;;;;;;6.80;75.20;;;;;;5022506;27;88505;-40
2022/11/22 10:48:15;;;;;;;;;;;6.80;75.50;;;;;;5044521;28;87926;-40
2022/11/22 10:50:53;;;;;;;;;;;6.70;75.30;;;;;;5044711;28;87221;-40
2022/11/22 10:53:30;;;;;;;;;;;6.70;75.40;;;;;;5047608;28;87407;-40
2022/11/22 10:55:59;;;;;;;;;;;6.70;75.60;;;;;;5043754;28;86990;-40
2022/11/22 10:58:51;;;;;;;;;;;6.80;75.60;;;;;;5044774;27;87674;-40
2022/11/22 11:01:16;;;;;;;;;;;6.80;75.30;;;;;;5044521;28;87367;-40
2022/11/22 11:03:43;;;;;;;;;;;6.80;75.40;;;;;;5044716;28;87102;-40
2022/11/22 11:06:24;;;;;;;;;;;6.80;75.30;;;;;;5044639;27;87133;-40
2022/11/22 11:08:52;;;;;;;;;;;6.80;75.40;;;;;;5043454;28;90436;-40
2022/11/22 11:11:20;;;;;;;;;;;6.70;75.70;;;;;;5044514;28;86990;-40
2022/11/22 11:13:48;;;;;;;;;;;6.80;75.60;;;;;;5044386;27;88185;-40
2022/11/22 11:16:15;;;;;;;;;;;6.80;75.60;;;;;;5046937;28;88115;-40
2022/11/22 11:19:04;;;;;;;;;;;6.80;75.20;;;;;;5044442;28;87418;-40
2022/11/22 11:21:30;;;;;;;;;;;6.80;75.30;;;;;;5037559;28;87921;-40
2022/11/22 11:23:56;;;;;;;;;;;6.80;75.30;;;;;;5044493;28;87006;-40
2022/11/22 11:26:24;;;;;;;;;;;6.80;75.50;;;;;;5044791;28;87445;-40
2022/11/22 11:28:50;;;;;;;;;;;6.80;75.30;;;;;;5044119;28;87934;-40
2022/11/22 11:31:17;;;;;;;;;;;6.80;75.60;;;;;;5043834;28;87085;-40
2022/11/22 11:33:42;;;;;;;;;;;6.90;75.70;;;;;;5043695;27;87923;-40
2022/11/22 11:36:26;;;;;;;;;;;6.90;75.50;;;;;;5044060;28;87953;-40
2022/11/22 11:38:53;;;;;;;;;;;6.90;75.30;;;;;;5046831;28;86917;-40
2022/11/22 11:41:18;;;;;;;;;;;6.90;75.70;;;;;;5043632;28;87907;-40
2022/11/22 11:43:44;;;;;;;;;;;6.90;75.40;;;;;;5043826;28;87141;-40
2022/11/22 11:46:16;;;;;;;;;;;6.90;75.50;;;;;;5043551;28;87622;-40
2022/11/22 11:48:42;;;;;;;;;;;6.90;75.40;;;;;;5043391;28;89075;-40
2022/11/22 11:51:07;;;;;;;;;;;6.90;75.40;;;;;;5044085;28;86442;-40
2022/11/22 11:53:34;;;;;;;;;;;6.90;75.40;;;;;;5043943;28;86910;-40
2022/11/22 11:56:38;;;;;;;;;;;6.90;75.50;;;;;;5043517;28;87857;-40
2022/11/22 11:59:06;;;;;;;;;;;6.90;75.30;;;;;;4999933;28;87950;-40
2022/11/22 12:01:33;;;;;;;;;;;7.00;75.40;;;;;;5003696;28;88291;-40
2022/11/22 12:04:00;;;;;;;;;;;7.00;75.30;;;;;;5021688;28;87488;-40
2022/11/22 12:06:27;;;;;;;;;;;7.00;75.50;;;;;;5043508;28;87008;-40
2022/11/22 12:08:52;;;;;;;;;;;6.90;75.40;;;;;;5043195;28;89283;-40
2022/11/22 12:11:21;;;;;;;;;;;6.90;75.50;;;;;;5043693;28;86911;-40
2022/11/22 12:13:49;;;;;;;;;;;7.00;75.50;;;;;;5043492;28;87431;-40
2022/11/22 12:16:14;;;;;;;;;;;6.90;75.30;;;;;;5043572;28;87264;-40
2022/11/22 12:18:49;;;;;;;;;;;7.00;75.50;;;;;;5043365;28;87019;-40
2022/11/22 12:21:15;;;;;;;;;;;7.00;75.20;;;;;;5043536;28;87367;-40
2022/11/22 12:23:41;;;;;;;;;;;7.00;75.50;;;;;;5045302;28;90335;-40
2022/11/22 12:26:06;;;;;;;;;;;7.00;75.70;;;;;;5043373;27;87450;-40
2022/11/22 12:28:32;;;;;;;;;;;7.00;75.40;;;;;;5043101;28;87254;-40
2022/11/22 12:31:00;;;;;;;;;;;7.00;75.70;;;;;;5043185;28;87106;-40
2022/11/22 12:33:32;;;;;;;;;;;7.00;75.70;;;;;;5043400;28;87572;-40
2022/11/22 12:35:59;;;;;;;;;;;7.00;75.30;;;;;;5043028;28;88102;-40
2022/11/22 12:38:31;;;;;;;;;;;7.00;75.60;;;;;;5043048;28;87218;-40
2022/11/22 12:40:59;;;;;;;;;;;7.00;75.50;;;;;;5043549;27;87515;-40
2022/11/22 12:43:42;;;;;;;;;;;7.00;75.60;;;;;;5042703;28;88060;-40
2022/11/22 12:46:15;;;;;;;;;;;7.00;75.60;;;;;;5045603;28;86909;-40
2022/11/22 12:48:46;;;;;;;;;;;7.00;75.60;;;;;;5042216;28;88734;-40
2022/11/22 12:51:32;;;;;;;;;;;7.00;76.00;;;;;;5042801;28;87049;-40
2022/11/22 12:54:02;;;;;;;;;;;7.00;75.70;;;;;;5020450;27;88547;-40
2022/11/22 12:56:29;;;;;;;;;;;7.00;75.70;;;;;;5042703;28;88799;-40
2022/11/22 12:58:58;;;;;;;;;;;7.00;75.90;;;;;;5042585;28;87072;-40
2022/11/22 13:01:35;;;;;;;;;;;7.00;75.70;;;;;;5043002;27;86870;-40
2022/11/22 13:04:10;;;;;;;;;;;7.00;75.70;;;;;;5042689;28;88053;-40
2022/11/22 13:06:48;;;;;;;;;;;7.00;75.90;;;;;;5045755;28;86576;-40
2022/11/22 13:09:18;;;;;;;;;;;7.10;75.90;;;;;;5042127;28;88235;-40
2022/11/22 13:11:47;;;;;;;;;;;7.00;75.90;;;;;;5043091;28;87430;-40
2022/11/22 13:14:18;;;;;;;;;;;7.10;75.80;;;;;;5042033;27;87815;-40
2022/11/22 13:16:44;;;;;;;;;;;7.00;76.00;;;;;;5042150;28;88029;-40
2022/11/22 13:19:14;;;;;;;;;;;7.10;75.90;;;;;;5041874;28;88098;-40
2022/11/22 13:21:42;;;;;;;;;;;7.10;75.70;;;;;;5042659;27;87394;-40
2022/11/22 13:24:17;;;;;;;;;;;7.10;75.90;;;;;;5042151;28;89665;-40
2022/11/22 13:26:51;;;;;;;;;;;7.10;75.90;;;;;;5042483;28;87102;-40
2022/11/22 13:29:21;;;;;;;;;;;7.10;75.70;;;;;;5045209;27;87276;-40
2022/11/22 13:32:04;;;;;;;;;;;7.10;75.90;;;;;;5042757;28;86354;-40
2022/11/22 13:34:31;;;;;;;;;;;7.00;75.90;;;;;;5042323;28;88201;-40
2022/11/22 13:37:04;;;;;;;;;;;7.10;76.10;;;;;;5042112;28;88541;-40
2022/11/22 13:39:30;;;;;;;;;;;7.10;75.80;;;;;;5041353;28;88197;-40
2022/11/22 13:41:58;;;;;;;;;;;7.10;76.00;;;;;;5042456;28;88415;-40
2022/11/22 13:44:33;;;;;;;;;;;7.10;75.80;;;;;;5041505;28;87967;-40
2022/11/22 13:47:01;;;;;;;;;;;7.10;76.00;;;;;;5042024;28;87202;-40
2022/11/22 13:49:34;;;;;;;;;;;7.10;75.70;;;;;;5042499;28;87571;-40
2022/11/22 13:52:00;;;;;;;;;;;7.10;76.10;;;;;;5044730;28;89295;-40
2022/11/22 13:54:32;;;;;;;;;;;7.10;76.10;;;;;;5042076;28;86915;-40
2022/11/22 13:56:59;;;;;;;;;;;7.10;76.00;;;;;;5042501;28;86627;-40
2022/11/22 13:59:24;;;;;;;;;;;7.10;75.90;;;;;;5041736;28;87023;-40
2022/11/22 14:01:50;;;;;;;;;;;7.10;75.90;;;;;;5042115;28;87940;-40
2022/11/22 14:04:16;;;;;;;;;;;7.10;75.90;;;;;;5041125;28;88929;-40
2022/11/22 14:06:47;;;;;;;;;;;7.10;76.10;;;;;;5041973;28;87013;-40
2022/11/22 14:09:15;;;;;;;;;;;7.10;76.00;;;;;;5042163;28;87808;-40
2022/11/22 14:11:53;;;;;;;;;;;7.10;75.90;;;;;;5041669;28;87276;-40
2022/11/22 14:14:36;;;;;;;;;;;7.10;75.90;;;;;;5045123;28;87023;-40
2022/11/22 14:17:20;;;;;;;;;;;7.10;76.00;;;;;;5041774;28;88202;-40
2022/11/22 14:19:45;;;;;;;;;;;7.10;75.80;;;;;;5041831;28;87056;-40
2022/11/22 14:22:30;;;;;;;;;;;7.10;76.10;;;;;;5042416;27;86450;-40
2022/11/22 14:25:14;;;;;;;;;;;7.20;76.00;;;;;;5041588;27;87272;-40
2022/11/22 14:27:52;;;;;;;;;;;7.20;75.90;;;;;;5041866;28;87115;-40
2022/11/22 14:30:21;;;;;;;;;;;7.10;76.20;;;;;;5043259;27;87795;-40
2022/11/22 14:32:48;;;;;;;;;;;7.10;76.00;;;;;;5044864;28;88032;-40
2022/11/22 14:35:23;;;;;;;;;;;7.10;76.20;;;;;;5044683;28;87173;-40
2022/11/22 14:38:03;;;;;;;;;;;7.10;76.10;;;;;;5047477;27;87745;-40
2022/11/22 14:40:30;;;;;;;;;;;7.10;76.00;;;;;;5044607;28;87105;-40
2022/11/22 14:43:00;;;;;;;;;;;7.10;76.10;;;;;;5044965;27;87347;-40
2022/11/22 14:45:36;;;;;;;;;;;7.20;76.30;;;;;;5044147;28;88016;-40